Brownfield, ME (04010)

4:44 AM EDT on July 31, 2016 (GMT -0400)
misty lane | | Change Station

Elev 404 ft 43.94 °N, 70.87 °W | Updated 19 seconds ago

Clear
Clear
56.3 °F
Feels Like 56.3 °F
N
0.0
Wind Variable Wind from SW
Gusts 1.0 mph

Today
High -- | Low -- °F
--% Chance of Precip.
Yesterday
High -- | Low -- °F
Precip. -- in
Pressure 30.09 in
Visibility 10.0 miles
Clouds Clear
Dew Point 55 °F
Humidity 96%
Rainfall 0.00 in
Snow Depth Not available.
5:31 AM 8:07 PM
Waning Crescent, 8% visible
METAR KIZG 310754Z AUTO 23003KT 10SM CLR 13/13 A3009 RMK AO2 SLP190 T01330128 $
Pressure 30.09 in
Visibility 10.0 miles
Clouds Clear
Dew Point 55 °F
Humidity 96%
Rainfall 0.00 in
Snow Depth Not available.
5:31 AM 8:07 PM
Waning Crescent, 8% visible
METAR KIZG 310754Z AUTO 23003KT 10SM CLR 13/13 A3009 RMK AO2 SLP190 T01330128 $

10-Day Weather Forecast

Almanac

Astronomy

Jul. 31, 2016 Rise Set
Actual Time
Civil Twilight
Nautical Twilight
Astronomical Twilight
Moon
Length of Visible Light
Length of Day
Tomorrow will be .
, % of the Moon is Illuminated

Today's Extremes

State Highs State Lows

Community

WunderPhotos

Upload Photos

1,928,768 photos uploaded!

WunderBlog® & News

Nearby

Air Quality

  Air Quality AQ Index Pollutant
Not available.

Snow Depth

Station Depth Elevation

Earthquake Activity

City Distance Mag. Time & Date
Minimum magnitude displayed is 2.5.

Coastal Water Temperatures

Place Temperature

Stations

Nearby Weather Stations

Station Location Temp. Windchill Dew Point Humidity Wind Precip. Elev Updated Type
                   

Watches & Warnings

There are currently no watches in effect.